Time;durP1;ratioP1;P1;durP2;ratioP2;P2;SDS_P1;SDS_P2;PMS_P1;PMS_P2;Temp;Humidity;BMP_temperature;BMP_pressure;BME280_temperature;BME280_humidity;BME280_pressure;Samples;Min_cycle;Max_cycle;Signal;HPM_P1;HPM_P2
2022/08/11 00:01:04;;;;;;;6.57;3.30;;;17.90;58.40;;;;;;5094124;28;19904;-63
2022/08/11 00:03:31;;;;;;;5.05;2.92;;;17.90;58.30;;;;;;5094135;28;20028;-61
2022/08/11 00:05:57;;;;;;;6.65;3.03;;;17.90;58.50;;;;;;5093920;28;20024;-64
2022/08/11 00:08:29;;;;;;;6.40;3.30;;;17.90;58.30;;;;;;5093723;28;20085;-64
2022/08/11 00:11:07;;;;;;;5.28;2.95;;;17.80;58.60;;;;;;5094042;28;20035;-62
2022/08/11 00:13:44;;;;;;;7.60;3.65;;;17.80;58.90;;;;;;5093890;28;20024;-64
2022/08/11 00:16:18;;;;;;;3.50;2.70;;;17.80;58.70;;;;;;5093666;28;20024;-62
2022/08/11 00:18:48;;;;;;;8.05;2.70;;;17.70;58.90;;;;;;5093074;28;20027;-63
2022/08/11 00:21:15;;;;;;;6.25;3.20;;;17.70;59.00;;;;;;5093885;28;20111;-64
2022/08/11 00:23:51;;;;;;;5.28;3.58;;;17.60;59.30;;;;;;5093757;28;20081;-63
2022/08/11 00:26:18;;;;;;;3.20;2.90;;;17.60;59.30;;;;;;5092399;28;20489;-63
2022/08/11 00:28:44;;;;;;;4.93;3.60;;;17.50;59.30;;;;;;5093675;28;20104;-63
2022/08/11 00:31:30;;;;;;;5.60;3.10;;;17.50;59.10;;;;;;5093766;28;20102;-63
2022/08/11 00:33:59;;;;;;;5.40;2.72;;;17.50;59.40;;;;;;5093653;28;20024;-64
2022/08/11 00:36:37;;;;;;;7.28;3.05;;;17.50;59.70;;;;;;5076010;28;20385;-62
2022/08/11 00:39:05;;;;;;;3.70;2.67;;;17.50;59.90;;;;;;5118329;22;20042;-66
2022/08/11 00:41:33;;;;;;;5.13;2.92;;;17.50;59.80;;;;;;5113461;28;20392;-63
2022/08/11 00:44:11;;;;;;;6.03;2.80;;;17.40;60.10;;;;;;5113573;28;20016;-64
2022/08/11 00:46:48;;;;;;;5.20;3.10;;;17.40;59.80;;;;;;5113865;28;20020;-63
2022/08/11 00:49:54;;;;;;;3.80;2.90;;;17.40;59.80;;;;;;5114101;28;20062;-63
2022/08/11 00:52:29;;;;;;;5.90;3.45;;;17.40;60.00;;;;;;5092625;28;20453;-66
2022/08/11 00:55:14;;;;;;;5.10;3.45;;;17.30;59.90;;;;;;5113703;28;20386;-64
2022/08/11 00:58:03;;;;;;;6.75;3.47;;;17.30;60.00;;;;;;5113435;28;20508;-63
2022/08/11 01:00:47;;;;;;;6.70;3.53;;;17.20;60.40;;;;;;5113451;28;20492;-64
2022/08/11 01:03:52;;;;;;;5.68;3.30;;;17.20;60.60;;;;;;5113681;28;20054;-64
2022/08/11 01:06:49;;;;;;;6.07;3.10;;;17.20;60.60;;;;;;5113495;28;20024;-64
2022/08/11 01:09:43;;;;;;;6.50;3.65;;;17.10;60.70;;;;;;5113382;28;20103;-64
2022/08/11 01:12:42;;;;;;;8.45;3.50;;;17.00;60.90;;;;;;5114899;28;20027;-64
2022/08/11 01:15:36;;;;;;;6.30;3.65;;;17.00;61.20;;;;;;5114014;28;20053;-64
2022/08/11 01:18:37;;;;;;;4.45;3.30;;;17.00;61.10;;;;;;5112832;28;20109;-63
2022/08/11 01:21:40;;;;;;;4.32;3.22;;;16.90;61.20;;;;;;5113369;28;20023;-64
2022/08/11 01:24:40;;;;;;;9.10;3.95;;;16.90;61.40;;;;;;5113163;28;20055;-63
2022/08/11 01:27:33;;;;;;;7.55;4.25;;;16.90;61.80;;;;;;5094584;28;20023;-63
2022/08/11 01:30:32;;;;;;;5.72;3.45;;;16.80;61.70;;;;;;5112293;28;20023;-63
2022/08/11 01:33:32;;;;;;;7.07;4.35;;;16.80;61.70;;;;;;5113206;28;20042;-64
2022/08/11 01:36:16;;;;;;;6.35;4.35;;;16.80;61.80;;;;;;5113468;28;20127;-65
2022/08/11 01:39:19;;;;;;;4.75;3.55;;;16.80;62.20;;;;;;5112486;28;20445;-65
2022/08/11 01:45:23;;;;;;;4.25;2.72;;;16.70;62.40;;;;;;5096927;28;20066;-65
2022/08/11 01:47:59;;;;;;;4.00;3.20;;;16.60;62.40;;;;;;5094289;28;20122;-65
2022/08/11 01:50:50;;;;;;;5.88;3.20;;;16.50;62.60;;;;;;5112688;28;20027;-65
2022/08/11 01:53:37;;;;;;;6.85;3.60;;;16.50;62.80;;;;;;5112683;28;20035;-64
2022/08/11 01:56:36;;;;;;;5.63;3.50;;;16.50;63.20;;;;;;5112487;28;20023;-65
2022/08/11 01:59:09;;;;;;;6.65;3.65;;;16.50;63.40;;;;;;5093857;28;20047;-65
2022/08/11 02:01:43;;;;;;;4.93;3.55;;;16.50;63.40;;;;;;5112473;28;20023;-65
2022/08/11 02:04:16;;;;;;;5.85;3.92;;;16.50;63.50;;;;;;5112390;28;20027;-64
2022/08/11 02:07:00;;;;;;;6.93;3.88;;;16.50;63.60;;;;;;5112398;28;20416;-65
2022/08/11 02:09:51;;;;;;;9.75;3.85;;;16.40;63.70;;;;;;5112279;28;20028;-64
2022/08/11 02:12:31;;;;;;;6.07;2.95;;;16.30;64.00;;;;;;5112300;28;20370;-64
2022/08/11 02:15:19;;;;;;;4.70;3.67;;;16.30;64.40;;;;;;5094057;28;20024;-64
2022/08/11 02:17:57;;;;;;;6.90;3.63;;;16.20;64.60;;;;;;5112041;28;20019;-64
2022/08/11 02:23:38;;;;;;;3.80;2.92;;;16.10;64.50;;;;;;5112200;28;20031;-64
2022/08/11 02:26:19;;;;;;;4.85;3.17;;;16.10;64.60;;;;;;5112071;28;20606;-64
2022/08/11 02:29:00;;;;;;;3.97;3.28;;;16.10;64.60;;;;;;5111812;28;20023;-64
2022/08/11 02:34:41;;;;;;;4.20;3.13;;;16.10;64.70;;;;;;5112006;28;20077;-64
2022/08/11 02:37:23;;;;;;;6.03;3.63;;;16.00;65.00;;;;;;5093762;28;20028;-64
2022/08/11 02:39:57;;;;;;;5.28;3.20;;;16.00;65.40;;;;;;5111883;28;20061;-65
2022/08/11 02:42:50;;;;;;;5.50;3.03;;;15.90;65.60;;;;;;5113701;28;20030;-65
2022/08/11 02:45:53;;;;;;;5.13;3.20;;;15.80;65.80;;;;;;5114755;28;20043;-64
2022/08/11 02:51:32;;;;;;;3.55;3.25;;;15.70;66.00;;;;;;5116239;28;20058;-64
2022/08/11 02:54:22;;;;;;;5.95;3.45;;;15.70;66.30;;;;;;5115787;28;20015;-65
2022/08/11 02:57:15;;;;;;;6.22;4.07;;;15.70;66.30;;;;;;5116321;28;20028;-65
2022/08/11 02:59:54;;;;;;;4.47;3.17;;;15.70;66.60;;;;;;5115824;28;20020;-64
2022/08/11 03:02:31;;;;;;;6.55;3.60;;;15.60;66.80;;;;;;5114936;28;20023;-64
2022/08/11 03:04:57;;;;;;;22.85;11.85;;;15.50;66.80;;;;;;5113825;28;20027;-64
2022/08/11 03:07:33;;;;;;;11.63;5.78;;;15.50;66.90;;;;;;5113929;28;20031;-64
2022/08/11 03:10:12;;;;;;;9.18;4.45;;;15.60;67.10;;;;;;5114077;28;20054;-64
2022/08/11 03:18:47;;;;;;;13.75;6.80;;;15.40;67.30;;;;;;5114905;28;20409;-65
2022/08/11 03:21:23;;;;;;;4.78;3.88;;;15.30;67.60;;;;;;5115431;28;20067;-65
2022/08/11 03:23:48;;;;;;;8.18;4.50;;;15.40;67.70;;;;;;5115518;28;20051;-65
2022/08/11 03:26:38;;;;;;;4.88;3.38;;;15.40;67.70;;;;;;5115452;28;20101;-65
2022/08/11 03:29:07;;;;;;;7.85;3.92;;;15.30;67.70;;;;;;5115387;28;20430;-65
2022/08/11 03:31:54;;;;;;;7.82;4.00;;;15.30;67.90;;;;;;5115289;28;20477;-65
2022/08/11 03:34:25;;;;;;;8.15;4.15;;;15.30;68.10;;;;;;5115593;28;20366;-65
2022/08/11 03:37:12;;;;;;;5.60;4.18;;;15.30;68.20;;;;;;5115262;28;20050;-65
2022/08/11 03:40:08;;;;;;;5.72;3.63;;;15.30;68.40;;;;;;5114854;28;20081;-64
2022/08/11 03:43:16;;;;;;;4.20;3.80;;;15.30;68.10;;;;;;5115414;28;20032;-64
2022/08/11 03:45:58;;;;;;;3.88;3.45;;;15.20;68.20;;;;;;5066511;28;20035;-65
2022/08/11 03:48:41;;;;;;;;;;;15.20;68.10;;;;;;5115452;28;20370;-65
2022/08/11 03:51:10;;;;;;;6.30;4.20;;;15.20;68.30;;;;;;5116152;28;19949;-65
2022/08/11 03:54:18;;;;;;;5.22;3.85;;;15.20;68.30;;;;;;5115164;28;20027;-64
2022/08/11 03:56:44;;;;;;;5.63;3.45;;;15.20;68.20;;;;;;5115288;28;20394;-65
2022/08/11 03:59:55;;;;;;;8.85;4.78;;;15.30;68.20;;;;;;5114757;28;20027;-65
2022/08/11 04:02:23;;;;;;;7.43;3.85;;;15.30;68.20;;;;;;5114736;28;20024;-64
2022/08/11 04:05:16;;;;;;;6.43;4.00;;;15.30;68.20;;;;;;5114455;28;20023;-64
2022/08/11 04:08:03;;;;;;;5.60;4.20;;;15.30;68.00;;;;;;5114643;28;20385;-64
2022/08/11 04:10:34;;;;;;;4.22;3.70;;;15.40;68.10;;;;;;5114689;28;20026;-64
2022/08/11 04:13:33;;;;;;;5.05;3.85;;;15.50;67.80;;;;;;5114460;28;20095;-65
2022/08/11 04:16:15;;;;;;;6.57;4.15;;;15.50;67.40;;;;;;5114524;28;20485;-64
2022/08/11 04:18:50;;;;;;;4.78;3.55;;;15.70;67.10;;;;;;5114011;28;20431;-65
2022/08/11 04:21:34;;;;;;;5.43;3.60;;;15.80;66.90;;;;;;5096169;28;20032;-65
2022/08/11 04:24:18;;;;;;;8.57;4.95;;;16.00;66.30;;;;;;5114392;28;20024;-64
2022/08/11 04:27:17;;;;;;;4.72;3.92;;;16.10;65.80;;;;;;5114415;28;20026;-64
2022/08/11 04:30:01;;;;;;;5.63;3.75;;;16.70;63.80;;;;;;5114110;28;20020;-65
2022/08/11 04:33:03;;;;;;;4.18;3.38;;;17.50;62.30;;;;;;5114068;28;20027;-65
2022/08/11 04:35:51;;;;;;;5.60;3.30;;;18.90;58.30;;;;;;5113989;28;20051;-65
2022/08/11 04:38:45;;;;;;;8.52;3.65;;;20.30;52.70;;;;;;5113546;28;20032;-65
2022/08/11 04:44:47;;;;;;;6.93;3.17;;;22.80;46.20;;;;;;5113831;28;20042;-64
2022/08/11 05:03:06;;;;;;;5.57;2.83;;;27.80;35.60;;;;;;5059529;28;20051;-64
2022/08/11 05:05:34;;;;;;;5.60;3.20;;;28.40;34.20;;;;;;5091617;28;20111;-65
2022/08/11 05:08:18;;;;;;;3.80;2.88;;;28.40;34.40;;;;;;5101433;28;20436;-64
2022/08/11 05:11:17;;;;;;;5.82;2.97;;;27.90;34.10;;;;;;5112497;28;20031;-65
2022/08/11 05:36:56;;;;;;;6.13;2.88;;;30.30;30.80;;;;;;5112871;28;20030;-64
2022/08/11 05:56:46;;;;;;;4.35;2.35;;;31.30;28.80;;;;;;5112433;28;20089;-66
2022/08/11 05:59:17;;;;;;;7.15;2.88;;;32.30;28.00;;;;;;5112265;28;20027;-66
2022/08/11 06:01:43;;;;;;;6.72;2.60;;;31.70;28.50;;;;;;5112527;28;20445;-66
2022/08/11 06:04:16;;;;;;;6.95;2.30;;;31.60;29.20;;;;;;5112726;28;20092;-66
2022/08/11 06:06:55;;;;;;;6.18;2.75;;;32.60;27.50;;;;;;5112369;28;20026;-67
2022/08/11 06:09:37;;;;;;;6.65;2.78;;;33.40;26.30;;;;;;5111825;28;20019;-66
2022/08/11 06:12:15;;;;;;;6.80;2.53;;;34.00;25.60;;;;;;5112460;28;20027;-66
2022/08/11 06:14:44;;;;;;;7.68;3.03;;;31.10;29.00;;;;;;5112184;28;20020;-65
2022/08/11 06:17:12;;;;;;;8.88;2.90;;;29.90;30.70;;;;;;5111548;28;20020;-66
2022/08/11 06:19:41;;;;;;;14.85;3.08;;;28.80;32.60;;;;;;5112125;28;20027;-67
2022/08/11 06:22:10;;;;;;;10.73;3.30;;;29.10;32.20;;;;;;5112074;28;20031;-67
2022/08/11 06:24:39;;;;;;;5.45;2.67;;;28.60;33.00;;;;;;5112062;28;20460;-66
2022/08/11 06:27:07;;;;;;;8.23;2.53;;;28.40;33.50;;;;;;5111628;28;20064;-66
2022/08/11 06:29:39;;;;;;;10.18;3.08;;;29.50;32.20;;;;;;5112141;28;20448;-66
2022/08/11 06:32:06;;;;;;;8.55;2.80;;;30.80;29.90;;;;;;5112111;28;20023;-67
2022/08/11 06:34:40;;;;;;;6.05;2.35;;;29.40;32.00;;;;;;5111983;28;20089;-66
2022/08/11 06:37:23;;;;;;;6.55;3.03;;;30.00;31.70;;;;;;5111878;28;20077;-67
2022/08/11 06:40:28;;;;;;;5.72;2.80;;;31.00;29.90;;;;;;5117678;22;20417;-73
2022/08/11 06:43:15;;;;;;;4.97;2.60;;;29.80;31.30;;;;;;5090780;28;20099;-69
2022/08/11 06:46:01;;;;;;;7.20;2.65;;;30.60;30.60;;;;;;5091558;28;20024;-68
2022/08/11 06:48:30;;;;;;;9.85;2.55;;;31.90;28.40;;;;;;5091456;28;20024;-66
2022/08/11 06:51:12;;;;;;;122.05;90.18;;;31.60;28.60;;;;;;5109042;28;20016;-68
2022/08/11 06:53:44;;;;;;;6.35;3.08;;;33.00;28.00;;;;;;5112388;28;20024;-68
2022/08/11 07:02:02;;;;;;;34.90;25.60;;;33.20;26.40;;;;;;5112275;28;20039;-67
2022/08/11 07:04:33;;;;;;;15.05;11.68;;;34.40;25.80;;;;;;5111837;28;20425;-67
2022/08/11 07:16:24;;;;;;;8.00;2.95;;;36.00;23.30;;;;;;5112188;28;20110;-71
2022/08/11 07:30:07;;;;;;;4.85;2.83;;;35.90;23.90;;;;;;5111278;28;20585;-71
2022/08/11 07:32:45;;;;;;;50.15;37.67;;;35.10;24.40;;;;;;5116927;28;20020;-72
2022/08/11 07:35:16;;;;;;;5.45;2.63;;;35.90;24.40;;;;;;5115146;28;20024;-70
